Terminal Aerodrome Forecast
Issued by NWS

Home | Current Version | Previous Version | Text Only | Print | Product List | Glossary On
Versions: 1 2 3 4 5 6 7 8 9 10 11 12 13 14 15 16 17
000
FTUS43 KDVN 251100
TAFCID
TAF
KCID 251120Z 2512/2612 10006KT 6SM TSRA BR BKN080CB
      TEMPO 2512/2514 3SM TSRA BR BKN040CB
     FM251600 18015G22KT P6SM SCT015 SCT035
     FM260000 16010KT P6SM SCT040=

USA.gov is the U.S. government's official web portal to all federal, state and local government web resources and services.